Time;durP1;ratioP1;P1;durP2;ratioP2;P2;SDS_P1;SDS_P2;PMS_P1;PMS_P2;Temp;Humidity;BMP_temperature;BMP_pressure;BME280_temperature;BME280_humidity;BME280_pressure;Samples;Min_cycle;Max_cycle;Signal;HPM_P1;HPM_P2
2022/01/14 00:01:22;;;;;;;45.55;22.92;;;;;;;-2.07;96.58;102800.47;5112298;28;20054;-74
2022/01/14 00:03:50;;;;;;;40.05;20.33;;;;;;;-2.13;96.18;102803.72;5112488;28;20106;-74
2022/01/14 00:06:18;;;;;;;38.60;18.83;;;;;;;-2.09;96.59;102797.94;5112536;28;20048;-74
2022/01/14 00:08:46;;;;;;;33.70;19.58;;;;;;;-2.09;95.39;102786.34;5112775;28;20478;-74
2022/01/14 00:11:16;;;;;;;36.92;19.30;;;;;;;-2.06;94.65;102786.06;5113034;28;20047;-74
2022/01/14 00:14:09;;;;;;;35.47;17.48;;;;;;;-2.05;94.14;102771.69;5112337;28;20051;-74
2022/01/14 00:16:37;;;;;;;34.25;18.63;;;;;;;-1.97;92.99;102771.81;5112031;28;20046;-74
2022/01/14 00:19:05;;;;;;;41.17;19.65;;;;;;;-1.90;93.34;102769.41;5112043;28;20048;-74
2022/01/14 00:21:35;;;;;;;35.20;18.10;;;;;;;-1.85;92.64;102775.19;5112108;28;20047;-74
2022/01/14 00:24:22;;;;;;;33.88;16.70;;;;;;;-1.93;92.58;102759.81;5111898;28;20055;-74
2022/01/14 00:35:11;;;;;;;33.25;17.27;;;;;;;-2.18;95.37;102754.03;5112304;28;20050;-74
2022/01/14 00:37:39;;;;;;;34.65;17.55;;;;;;;-2.03;94.71;102748.22;5111306;28;20047;-74
2022/01/14 00:40:08;;;;;;;33.60;17.30;;;;;;;-2.04;93.81;102744.69;5112237;28;20047;-74
2022/01/14 00:42:36;;;;;;;39.25;18.05;;;;;;;-2.01;93.77;102743.53;5111572;28;20050;-74
2022/01/14 00:45:07;;;;;;;36.67;18.42;;;;;;;-1.89;92.97;102746.94;5111905;28;20039;-74
2022/01/14 00:47:37;;;;;;;45.67;20.33;;;;;;;-2.00;94.01;102737.22;5112328;28;20073;-74
2022/01/14 00:50:10;;;;;;;42.50;20.38;;;;;;;-2.09;94.61;102738.06;5111873;28;20059;-74
2022/01/14 00:52:40;;;;;;;44.42;21.85;;;;;;;-2.04;94.86;102733.94;5094290;28;20055;-74
2022/01/14 00:55:14;;;;;;;42.65;21.33;;;;;;;-1.93;94.70;102732.09;5112006;28;20044;-74
2022/01/14 01:00:29;;;;;;;43.67;22.15;;;;;;;-1.91;94.99;102725.59;5111341;28;20048;-74
2022/01/14 01:02:57;;;;;;;40.72;21.45;;;;;;;-1.76;94.23;102735.91;5112447;28;20097;-74
2022/01/14 01:05:25;;;;;;;42.28;21.80;;;;;;;-1.84;94.03;102739.31;5112207;28;20040;-74
2022/01/14 01:08:05;;;;;;;40.22;19.83;;;;;;;-1.81;93.84;102748.91;5111529;28;20047;-74
2022/01/14 01:10:34;;;;;;;41.53;19.35;;;;;;;-1.62;92.70;102742.66;5111574;28;20059;-74
2022/01/14 01:13:17;;;;;;;41.58;21.48;;;;;;;-1.77;92.32;102737.75;5112283;28;20040;-74
2022/01/14 01:15:45;;;;;;;38.45;22.10;;;;;;;-1.96;93.32;102738.59;5112255;28;20385;-74
2022/01/14 01:18:13;;;;;;;33.63;18.80;;;;;;;-1.99;94.01;102744.28;5111552;28;20055;-74
2022/01/14 01:20:41;;;;;;;48.40;21.48;;;;;;;-1.94;93.86;102730.41;5112066;28;20052;-74
2022/01/14 01:23:09;;;;;;;38.90;20.23;;;;;;;-2.08;93.99;102731.69;5111712;28;20422;-74
2022/01/14 01:25:56;;;;;;;38.42;19.67;;;;;;;-2.14;95.14;102737.63;5093146;28;20047;-74
2022/01/14 01:28:26;;;;;;;43.42;20.13;;;;;;;-2.17;94.49;102728.88;5111489;28;20074;-74
2022/01/14 01:33:27;;;;;;;;;;;;;;;-2.32;96.20;102730.28;5112616;28;20043;-74
2022/01/14 01:35:56;;;;;;;38.63;17.88;;;;;;;-2.35;96.99;102725.22;5111961;28;20374;-74
2022/01/14 01:38:24;;;;;;;35.40;18.67;;;;;;;-2.36;95.73;102715.44;5112070;28;20043;-74
2022/01/14 01:40:53;;;;;;;39.50;19.92;;;;;;;-2.10;94.99;102717.59;5111012;28;20043;-74
2022/01/14 01:43:24;;;;;;;33.90;18.80;;;;;;;-1.98;93.55;102719.13;5111247;28;20513;-74
2022/01/14 01:45:54;;;;;;;34.97;18.65;;;;;;;-2.03;94.32;102727.63;5094155;28;20044;-74
2022/01/14 01:48:22;;;;;;;36.65;20.08;;;;;;;-2.03;93.16;102716.88;5111300;28;20047;-74
2022/01/14 01:50:50;;;;;;;33.45;18.48;;;;;;;-2.16;93.80;102718.97;5114996;28;20074;-74
2022/01/14 01:53:18;;;;;;;38.85;18.65;;;;;;;-2.26;94.05;102716.31;5096963;28;20052;-74
2022/01/14 01:55:46;;;;;;;30.83;17.85;;;;;;;-2.33;94.68;102708.00;5114824;28;20052;-74
2022/01/14 01:58:14;;;;;;;35.53;17.70;;;;;;;-2.35;93.91;102707.28;5114868;28;20051;-74
2022/01/14 02:00:42;;;;;;;34.35;17.83;;;;;;;-2.33;93.69;102704.47;5115179;28;20043;-73
2022/01/14 02:03:12;;;;;;;28.35;16.55;;;;;;;-2.37;93.75;102701.22;5115566;28;20040;-74
2022/01/14 02:05:40;;;;;;;30.67;17.70;;;;;;;-2.39;94.64;102699.66;5114438;28;20047;-74
2022/01/14 02:08:08;;;;;;;34.88;17.55;;;;;;;-2.39;94.88;102696.97;5114827;28;20490;-74
2022/01/14 02:10:38;;;;;;;27.35;16.30;;;;;;;-2.35;94.71;102687.66;5114771;28;20044;-73
2022/01/14 02:13:06;;;;;;;33.60;17.25;;;;;;;-2.33;93.85;102683.00;5114604;28;20056;-74
2022/01/14 02:15:49;;;;;;;34.45;17.85;;;;;;;-2.09;93.29;102669.16;5114340;28;20040;-74
2022/01/14 02:18:36;;;;;;;31.23;16.97;;;;;;;-1.97;93.21;102667.13;5114325;28;20059;-74
2022/01/14 02:26:53;;;;;;;29.98;15.70;;;;;;;-2.19;94.47;102674.50;5114279;28;20077;-74
2022/01/14 02:29:22;;;;;;;29.73;16.45;;;;;;;-2.21;94.61;102673.81;5115064;28;20039;-74
2022/01/14 02:31:50;;;;;;;27.95;15.35;;;;;;;-2.25;95.83;102676.94;5114319;28;20055;-74
2022/01/14 02:34:18;;;;;;;27.92;14.77;;;;;;;-2.28;95.86;102674.53;5114848;28;20051;-73
2022/01/14 02:36:47;;;;;;;28.45;16.17;;;;;;;-2.32;95.07;102671.28;5114544;28;20060;-74
2022/01/14 02:39:17;;;;;;;28.52;15.85;;;;;;;-2.32;94.59;102661.41;5114802;28;20050;-74
2022/01/14 02:41:48;;;;;;;27.10;15.05;;;;;;;-2.28;94.84;102653.91;5114873;28;20505;-74
2022/01/14 02:44:23;;;;;;;29.08;15.30;;;;;;;-2.26;94.73;102653.78;5114694;28;20046;-74
2022/01/14 02:46:56;;;;;;;30.45;15.18;;;;;;;-2.25;94.91;102650.94;5114211;28;20043;-74
2022/01/14 02:49:28;;;;;;;31.83;15.15;;;;;;;-2.10;93.68;102650.50;5113909;28;20058;-74
2022/01/14 02:51:57;;;;;;;27.05;14.38;;;;;;;-2.11;93.96;102638.09;5114267;28;20046;-74
2022/01/14 02:54:33;;;;;;;26.02;13.70;;;;;;;-1.95;92.43;102637.47;5114115;28;20048;-74
2022/01/14 02:57:02;;;;;;;28.52;14.70;;;;;;;-2.00;93.62;102635.25;5112890;28;20055;-74
2022/01/14 02:59:31;;;;;;;29.60;14.25;;;;;;;-1.88;92.27;102638.59;5113351;28;20105;-74
2022/01/14 03:02:03;;;;;;;25.50;14.50;;;;;;;-1.69;91.00;102635.00;5113526;28;20044;-74
2022/01/14 03:04:36;;;;;;;24.95;14.82;;;;;;;-1.65;90.09;102630.19;5113658;28;20047;-73
2022/01/14 03:07:05;;;;;;;27.67;15.07;;;;;;;-1.72;89.91;102627.22;5113448;28;20055;-74
2022/01/14 03:09:33;;;;;;;26.50;14.88;;;;;;;-1.94;90.73;102617.69;5113314;28;20056;-74
2022/01/14 03:12:03;;;;;;;27.33;14.70;;;;;;;-2.08;91.28;102605.59;5114145;28;20040;-74
2022/01/14 03:14:31;;;;;;;22.95;13.23;;;;;;;-1.85;89.91;102606.09;5113970;28;20401;-74
2022/01/14 03:17:00;;;;;;;25.85;13.93;;;;;;;-1.62;88.11;102606.56;5113305;28;20048;-74
2022/01/14 03:19:29;;;;;;;25.02;12.45;;;;;;;-1.60;86.94;102603.72;5114131;28;20509;-73
2022/01/14 03:22:18;;;;;;;33.50;14.40;;;;;;;-1.72;87.00;102602.25;5113974;28;20051;-74
2022/01/14 03:27:16;;;;;;;21.02;11.40;;;;;;;-2.06;87.51;102590.19;5113932;28;20114;-74
2022/01/14 03:29:45;;;;;;;24.00;13.20;;;;;;;-2.14;88.31;102596.28;5113260;28;20043;-74
2022/01/14 03:32:13;;;;;;;19.85;10.82;;;;;;;-2.19;88.68;102595.88;5112961;28;20398;-74
2022/01/14 03:34:41;;;;;;;23.65;12.18;;;;;;;-2.21;89.11;102590.66;5113063;28;20043;-74
2022/01/14 03:37:09;;;;;;;19.55;10.55;;;;;;;-2.19;88.50;102587.84;5112952;28;20517;-74
2022/01/14 03:39:37;;;;;;;20.52;10.43;;;;;;;-2.13;88.32;102583.72;5113519;28;20371;-74
2022/01/14 03:42:06;;;;;;;20.02;10.18;;;;;;;-2.01;86.37;102577.19;5113318;28;20074;-74
2022/01/14 03:44:34;;;;;;;15.82;8.85;;;;;;;-2.02;86.43;102578.16;5112492;28;20498;-74
2022/01/14 03:47:02;;;;;;;16.42;9.80;;;;;;;-2.05;87.21;102573.94;5113485;28;20039;-74
2022/01/14 03:49:29;;;;;;;20.40;9.63;;;;;;;-2.14;88.00;102580.19;5113646;28;20048;-74
2022/01/14 03:51:57;;;;;;;17.88;9.45;;;;;;;-2.23;87.81;102573.00;5113072;28;20129;-74
2022/01/14 03:54:25;;;;;;;17.83;9.77;;;;;;;-2.30;87.84;102575.41;5095097;28;20047;-74
2022/01/14 03:56:53;;;;;;;20.58;9.20;;;;;;;-2.25;87.61;102573.16;5112700;28;20052;-74
2022/01/14 03:59:21;;;;;;;18.50;9.07;;;;;;;-2.29;89.19;102561.03;5113036;28;20059;-74
2022/01/14 04:01:49;;;;;;;21.55;10.30;;;;;;;-2.24;89.15;102558.78;5112474;28;20110;-74
2022/01/14 04:04:18;;;;;;;17.42;9.65;;;;;;;-2.27;89.42;102559.03;5113013;28;20048;-74
2022/01/14 04:06:46;;;;;;;22.02;10.27;;;;;;;-2.08;88.93;102547.41;5112160;28;20048;-74
2022/01/14 04:09:13;;;;;;;15.63;9.82;;;;;;;-2.14;89.27;102552.50;5112634;28;20047;-74
2022/01/14 04:11:44;;;;;;;20.67;10.68;;;;;;;-2.18;90.37;102543.91;5112038;28;20055;-74
2022/01/14 04:16:49;;;;;;;22.15;10.95;;;;;;;-2.13;90.21;102527.38;5113147;28;20483;-74
2022/01/14 04:19:17;;;;;;;23.10;11.25;;;;;;;-2.15;90.63;102519.50;5112035;28;20035;-74
2022/01/14 04:21:45;;;;;;;20.80;10.50;;;;;;;-2.04;90.01;102521.13;5112961;28;20054;-74
2022/01/14 04:24:14;;;;;;;18.45;10.07;;;;;;;-1.97;90.61;102516.84;5112170;28;20044;-74
2022/01/14 04:26:42;;;;;;;19.20;11.07;;;;;;;-2.08;91.71;102509.00;5112611;28;20024;-74
2022/01/14 04:29:11;;;;;;;20.52;10.30;;;;;;;-2.19;92.24;102504.66;5112215;28;20062;-74
2022/01/14 04:31:39;;;;;;;16.83;9.23;;;;;;;-2.27;93.17;102497.34;5112056;28;20036;-74
2022/01/14 04:34:08;;;;;;;18.92;10.38;;;;;;;-2.30;93.18;102489.59;5094118;28;20055;-74
2022/01/14 04:36:36;;;;;;;20.77;11.10;;;;;;;-2.31;93.44;102504.00;5122212;27;20044;-74
2022/01/14 04:39:04;;;;;;;19.85;9.95;;;;;;;-2.29;93.47;102496.66;5107459;28;20051;-74
2022/01/14 04:41:32;;;;;;;21.55;10.43;;;;;;;-2.22;93.39;102502.28;5112031;28;20043;-74
2022/01/14 04:44:01;;;;;;;19.65;11.25;;;;;;;-2.16;93.94;102507.91;5112811;28;20482;-74
2022/01/14 04:47:17;;;;;;;21.08;10.57;;;;;;;-2.22;93.84;102499.59;5111500;28;20498;-74
2022/01/14 04:49:23;;;;;;;24.58;11.10;;;;;;;-2.26;93.68;102492.84;5108739;28;20047;-74
2022/01/14 04:51:51;;;;;;;17.75;9.93;;;;;;;-2.28;94.10;102487.63;5112489;28;20039;-74
2022/01/14 04:54:19;;;;;;;19.30;11.07;;;;;;;-2.21;94.06;102486.03;5111806;28;20058;-74
2022/01/14 04:56:47;;;;;;;21.98;12.18;;;;;;;-1.82;92.53;102492.19;5111390;28;20048;-74
2022/01/14 04:59:15;;;;;;;19.25;11.23;;;;;;;-1.94;93.51;102492.44;5111778;28;20059;-74
2022/01/14 05:01:43;;;;;;;19.60;10.57;;;;;;;-2.07;93.38;102489.22;5111159;28;20058;-74
2022/01/14 05:04:11;;;;;;;24.13;11.40;;;;;;;-2.13;92.79;102487.13;5112326;28;20047;-74
2022/01/14 05:06:43;;;;;;;19.38;11.40;;;;;;;-2.00;93.15;102484.97;5112117;28;20401;-74
2022/01/14 05:09:30;;;;;;;20.27;11.02;;;;;;;-1.81;92.69;102497.44;5111414;28;20078;-74
2022/01/14 05:12:05;;;;;;;18.42;10.20;;;;;;;-1.82;93.12;102486.84;5093845;28;20044;-74
2022/01/14 05:14:34;;;;;;;24.08;11.85;;;;;;;-1.93;92.46;102486.06;5111596;28;20047;-74
2022/01/14 05:17:02;;;;;;;21.50;11.23;;;;;;;-1.96;92.82;102489.03;5111689;28;20036;-74
2022/01/14 05:19:30;;;;;;;20.58;11.18;;;;;;;-1.97;92.86;102484.66;5099963;28;20058;-74
2022/01/14 05:22:00;;;;;;;19.25;11.20;;;;;;;-1.96;92.64;102489.03;5111772;28;20508;-74
2022/01/14 05:24:28;;;;;;;25.60;11.07;;;;;;;-1.93;92.03;102480.69;5114865;28;20497;-74
2022/01/14 05:26:56;;;;;;;20.30;10.02;;;;;;;-1.99;92.45;102473.25;5115427;28;20036;-74
2022/01/14 05:29:24;;;;;;;16.98;10.45;;;;;;;-1.95;92.27;102471.09;5097754;28;20059;-74
2022/01/14 05:32:01;;;;;;;21.38;11.38;;;;;;;-1.95;92.58;102471.94;5115275;28;20513;-73
2022/01/14 05:34:33;;;;;;;20.88;11.07;;;;;;;-2.09;92.99;102475.13;5115647;28;20048;-73
2022/01/14 05:37:03;;;;;;;27.25;11.15;;;;;;;-2.14;94.31;102474.72;5115275;28;20394;-73
2022/01/14 05:39:32;;;;;;;22.25;12.30;;;;;;;-2.17;95.32;102468.66;5115915;28;20512;-73
2022/01/14 05:42:05;;;;;;;24.13;12.90;;;;;;;-2.18;95.75;102466.13;5115059;28;20043;-73
2022/01/14 05:44:33;;;;;;;27.10;13.32;;;;;;;-2.20;96.08;102463.56;5115974;28;20047;-73
2022/01/14 05:47:01;;;;;;;25.25;14.38;;;;;;;-2.18;96.14;102466.97;5115507;28;20039;-73
2022/01/14 05:49:29;;;;;;;29.05;14.38;;;;;;;-2.23;96.33;102471.94;5115838;28;20626;-73
2022/01/14 05:51:57;;;;;;;33.33;16.27;;;;;;;-2.25;96.64;102465.84;5115397;28;20394;-73
2022/01/14 05:54:26;;;;;;;38.42;16.73;;;;;;;-2.03;95.02;102474.53;5095948;28;20069;-73
2022/01/14 05:56:54;;;;;;;31.63;16.90;;;;;;;-1.97;93.93;102475.75;5114606;28;20417;-73
2022/01/14 05:59:22;;;;;;;32.40;17.45;;;;;;;-2.04;93.91;102459.44;5096408;28;20047;-73
2022/01/14 06:01:50;;;;;;;31.02;15.25;;;;;;;-2.09;93.61;102464.38;5103051;28;20071;-73
2022/01/14 06:04:18;;;;;;;25.73;14.82;;;;;;;-2.05;93.33;102466.63;5115031;28;20051;-74
2022/01/14 06:06:46;;;;;;;32.80;15.75;;;;;;;-2.10;93.42;102454.66;5115152;28;20035;-74
2022/01/14 06:09:14;;;;;;;31.95;15.55;;;;;;;-2.11;94.33;102458.34;5111820;28;20075;-81
2022/01/14 06:11:42;;;;;;;28.50;14.48;;;;;;;-2.07;94.56;102454.34;5110997;28;20489;-73
2022/01/14 06:14:10;;;;;;;30.08;13.43;;;;;;;-2.12;94.86;102451.25;5114756;28;20055;-73
2022/01/14 06:16:37;;;;;;;29.13;14.43;;;;;;;-2.00;94.85;102447.41;5112767;28;20047;-73
2022/01/14 06:19:05;;;;;;;29.42;14.88;;;;;;;-1.93;94.79;102458.38;5099513;28;20040;-73
2022/01/14 06:21:33;;;;;;;26.23;14.90;;;;;;;-1.77;94.02;102457.69;5100566;28;20047;-74
2022/01/14 06:24:01;;;;;;;25.35;14.85;;;;;;;-1.89;94.77;102449.03;5094905;28;20051;-74
2022/01/14 06:26:29;;;;;;;28.55;13.93;;;;;;;-1.81;97.49;102450.97;5101679;28;20036;-82
2022/01/14 06:28:57;;;;;;;25.05;14.23;;;;;;;-1.65;94.90;102447.59;5094574;28;20052;-74
2022/01/14 06:31:25;;;;;;;29.80;14.52;;;;;;;-1.52;94.68;102439.19;5088054;28;20048;-74
2022/01/14 06:33:53;;;;;;;27.02;14.13;;;;;;;-1.47;93.89;102431.50;5092936;28;20043;-74
2022/01/14 06:36:21;;;;;;;27.67;14.02;;;;;;;-1.40;93.45;102427.22;5093177;28;20055;-74
2022/01/14 06:38:49;;;;;;;23.30;13.45;;;;;;;-1.33;92.30;102411.31;5075673;28;20056;-75
2022/01/14 06:41:17;;;;;;;27.30;14.30;;;;;;;-1.37;92.64;102421.50;5097075;28;20044;-75
2022/01/14 06:43:45;;;;;;;28.65;14.90;;;;;;;-1.29;92.56;102418.06;5095820;28;20047;-74
2022/01/14 06:46:13;;;;;;;29.35;13.88;;;;;;;-1.38;91.36;102422.53;5096395;28;20058;-75
2022/01/14 06:48:41;;;;;;;29.73;14.25;;;;;;;-1.58;92.61;102419.16;5093765;28;20479;-75
2022/01/14 06:51:14;;;;;;;31.73;14.93;;;;;;;-1.65;92.27;102410.84;5093175;28;20055;-75
2022/01/14 06:53:45;;;;;;;30.35;14.32;;;;;;;-1.81;91.51;102408.03;5093548;28;20044;-74
2022/01/14 06:56:14;;;;;;;34.65;14.45;;;;;;;-1.98;92.29;102407.84;5105941;28;20059;-75
2022/01/14 06:58:43;;;;;;;29.40;13.85;;;;;;;-2.12;92.98;102406.50;5113336;28;20051;-74
2022/01/14 07:01:12;;;;;;;25.48;13.93;;;;;;;-1.90;93.48;102409.78;5113724;28;20528;-75
2022/01/14 07:03:40;;;;;;;27.05;14.18;;;;;;;-1.87;93.51;102405.94;5113700;28;20056;-75
2022/01/14 07:06:10;;;;;;;25.90;14.05;;;;;;;-1.91;93.90;102408.09;5113517;28;20517;-74
2022/01/14 07:08:38;;;;;;;30.42;14.93;;;;;;;-2.01;94.37;102402.75;5112426;28;20168;-74
2022/01/14 07:11:06;;;;;;;27.67;13.85;;;;;;;-2.00;94.66;102403.63;5113593;28;20047;-74
2022/01/14 07:13:34;;;;;;;29.48;13.93;;;;;;;-2.05;95.15;102393.34;5114040;28;20076;-75
2022/01/14 07:16:05;;;;;;;28.23;13.70;;;;;;;-2.10;95.40;102404.50;5113386;28;20051;-74
2022/01/14 07:18:33;;;;;;;24.63;13.02;;;;;;;-2.07;95.84;102395.31;5113290;28;20044;-74
2022/01/14 07:21:01;;;;;;;25.35;13.15;;;;;;;-1.96;95.08;102400.47;5114011;28;20044;-74
2022/01/14 07:23:29;;;;;;;26.10;14.95;;;;;;;-1.84;93.43;102393.06;5113976;28;20048;-74
2022/01/14 07:25:57;;;;;;;31.73;15.82;;;;;;;-1.69;93.17;102401.44;5113495;28;20062;-74
2022/01/14 07:28:25;;;;;;;25.88;14.05;;;;;;;-1.48;92.38;102389.53;5112966;28;20044;-74
2022/01/14 07:30:53;;;;;;;35.83;17.23;;;;;;;-1.27;90.81;102385.69;5113029;28;20048;-74
2022/01/14 07:33:22;;;;;;;29.85;16.05;;;;;;;-1.19;88.57;102385.72;5113245;28;20055;-74
2022/01/14 07:35:50;;;;;;;32.53;17.10;;;;;;;-0.99;87.75;102390.91;5113030;28;20054;-75
2022/01/14 07:38:17;;;;;;;23.08;13.88;;;;;;;-0.75;86.86;102389.34;5113155;28;20044;-74
2022/01/14 07:40:45;;;;;;;21.73;13.18;;;;;;;-0.38;84.99;102392.75;5094927;28;20060;-74
2022/01/14 07:43:13;;;;;;;27.30;13.75;;;;;;;-0.03;82.95;102385.47;5112762;28;20039;-75
2022/01/14 07:45:41;;;;;;;26.38;13.65;;;;;;;0.10;81.19;102391.22;5112185;28;20058;-74
2022/01/14 07:48:09;;;;;;;23.92;11.80;;;;;;;0.11;79.75;102392.06;5094396;28;20047;-75
2022/01/14 07:50:38;;;;;;;24.05;13.60;;;;;;;0.14;81.13;102394.41;5112678;28;20047;-75
2022/01/14 07:53:06;;;;;;;21.20;12.32;;;;;;;0.08;80.82;102390.53;5112794;28;20051;-74
2022/01/14 07:55:34;;;;;;;23.48;12.35;;;;;;;0.21;80.31;102392.78;5112476;28;20043;-75
2022/01/14 07:58:03;;;;;;;22.98;12.30;;;;;;;0.37;80.37;102383.00;5112322;28;20051;-75
2022/01/14 08:00:31;;;;;;;26.65;12.20;;;;;;;0.46;79.87;102392.78;5110435;28;20050;-75
2022/01/14 08:03:00;;;;;;;20.05;12.07;;;;;;;0.74;79.28;102381.66;5095338;28;20050;-75
2022/01/14 08:05:28;;;;;;;26.23;11.93;;;;;;;0.92;78.27;102383.31;5112578;28;20042;-76
2022/01/14 08:07:58;;;;;;;25.80;12.82;;;;;;;1.07;77.84;102384.31;5112570;28;20044;-75
2022/01/14 08:10:26;;;;;;;25.13;12.65;;;;;;;1.03;78.05;102387.53;5112416;28;20047;-75
2022/01/14 08:12:54;;;;;;;24.83;12.23;;;;;;;1.17;78.56;102391.41;5111924;28;20047;-75
2022/01/14 08:15:27;;;;;;;21.83;11.55;;;;;;;1.40;76.51;102391.50;5111476;28;20058;-75
2022/01/14 08:17:55;;;;;;;29.58;12.70;;;;;;;1.50;76.32;102388.59;5111669;28;20487;-76
2022/01/14 08:20:23;;;;;;;26.45;12.07;;;;;;;1.74;76.38;102392.19;5112306;28;20486;-76
2022/01/14 08:22:51;;;;;;;24.52;13.32;;;;;;;2.01;75.40;102392.75;5111926;28;20035;-76
2022/01/14 08:25:19;;;;;;;24.25;11.60;;;;;;;2.09;75.62;102379.19;5112451;28;20048;-75
2022/01/14 08:27:47;;;;;;;20.75;11.52;;;;;;;2.36;74.66;102377.00;5112082;28;20050;-75
2022/01/14 08:30:14;;;;;;;20.73;11.60;;;;;;;2.62;72.36;102378.47;5094139;28;20051;-75
2022/01/14 08:32:43;;;;;;;22.67;11.63;;;;;;;2.81;69.68;102376.28;5111857;28;20051;-75
2022/01/14 08:35:11;;;;;;;23.65;11.35;;;;;;;3.05;70.09;102369.81;5112250;28;20394;-75
2022/01/14 08:37:40;;;;;;;18.73;10.90;;;;;;;3.45;70.34;102366.81;5111988;28;20050;-75
2022/01/14 08:40:09;;;;;;;22.95;10.75;;;;;;;3.80;67.55;102363.47;5112614;28;20047;-75
2022/01/14 08:42:38;;;;;;;21.00;10.98;;;;;;;3.96;68.42;102373.25;5112057;28;20043;-76
2022/01/14 08:45:07;;;;;;;18.13;10.40;;;;;;;4.03;67.36;102374.19;5094025;28;20046;-75
2022/01/14 08:47:40;;;;;;;22.85;11.80;;;;;;;4.35;66.18;102371.16;5112125;28;20047;-76
2022/01/14 08:50:08;;;;;;;19.40;10.05;;;;;;;4.59;64.69;102368.25;5111615;28;20048;-76
2022/01/14 08:52:36;;;;;;;15.18;9.30;;;;;;;4.56;62.14;102367.59;5112203;28;20051;-76
2022/01/14 08:55:05;;;;;;;16.80;8.40;;;;;;;4.67;62.20;102366.25;5111528;28;20047;-75
2022/01/14 08:57:33;;;;;;;14.25;8.80;;;;;;;4.79;63.10;102357.56;5111399;28;20043;-75
2022/01/14 09:00:01;;;;;;;15.63;9.30;;;;;;;4.85;62.86;102362.19;5111678;28;20058;-75
2022/01/14 09:02:29;;;;;;;17.13;10.50;;;;;;;5.27;62.83;102356.81;5111430;28;20051;-75
2022/01/14 09:04:57;;;;;;;20.02;10.57;;;;;;;5.20;61.71;102358.66;5111477;28;20059;-76
2022/01/14 09:07:26;;;;;;;22.10;11.52;;;;;;;5.16;64.81;102352.81;5111588;28;20389;-75
2022/01/14 09:09:54;;;;;;;25.90;13.05;;;;;;;4.86;66.24;102339.47;5111177;28;20044;-75
2022/01/14 09:12:22;;;;;;;27.45;13.75;;;;;;;4.50;66.68;102343.16;5111105;28;20056;-75
2022/01/14 09:14:51;;;;;;;30.65;14.75;;;;;;;4.58;67.33;102343.00;5111841;28;20063;-75
2022/01/14 09:17:23;;;;;;;27.63;15.05;;;;;;;4.61;67.21;102337.19;5111980;28;20039;-75
2022/01/14 09:19:51;;;;;;;26.55;14.85;;;;;;;4.44;66.47;102345.59;5111451;28;20502;-75
2022/01/14 09:22:19;;;;;;;31.42;14.07;;;;;;;4.39;65.68;102348.06;5111242;28;20086;-76
2022/01/14 09:24:50;;;;;;;29.20;15.18;;;;;;;4.59;65.78;102351.97;5111518;28;20074;-76
2022/01/14 09:27:18;;;;;;;25.90;14.50;;;;;;;4.50;64.96;102345.84;5111579;28;20055;-76
2022/01/14 09:29:47;;;;;;;21.15;12.98;;;;;;;4.46;64.66;102336.44;5111611;28;20051;-75
2022/01/14 09:32:15;;;;;;;22.75;13.05;;;;;;;4.33;64.30;102334.44;5111220;28;20055;-75
2022/01/14 09:34:44;;;;;;;24.10;13.20;;;;;;;4.34;64.50;102328.81;5111180;28;20044;-76
2022/01/14 09:37:12;;;;;;;26.23;14.23;;;;;;;4.44;64.95;102325.78;5111935;28;20055;-75
2022/01/14 09:39:43;;;;;;;23.30;12.63;;;;;;;4.83;64.13;102324.41;5093404;28;20044;-75
2022/01/14 09:42:13;;;;;;;27.27;14.15;;;;;;;5.07;61.99;102335.84;5112053;28;20080;-75
2022/01/14 09:44:42;;;;;;;24.08;13.85;;;;;;;4.79;63.44;102331.25;5111349;28;20059;-75
2022/01/14 09:47:16;;;;;;;19.55;11.65;;;;;;;4.83;64.02;102323.56;5111595;28;20561;-75
2022/01/14 09:49:45;;;;;;;20.90;12.70;;;;;;;4.94;64.11;102325.72;5111384;28;20044;-75
2022/01/14 09:52:15;;;;;;;20.17;11.85;;;;;;;5.33;63.68;102328.88;5111343;28;20386;-75
2022/01/14 09:54:47;;;;;;;25.00;12.45;;;;;;;5.19;63.06;102332.56;5111640;28;20047;-75
2022/01/14 09:57:17;;;;;;;19.45;12.35;;;;;;;5.50;62.59;102328.53;5097485;28;20060;-75
2022/01/14 09:59:46;;;;;;;19.77;11.68;;;;;;;5.73;62.02;102335.50;5093988;28;20047;-75
2022/01/14 10:02:38;;;;;;;23.25;12.50;;;;;;;5.58;62.45;102324.81;5110840;28;20055;-75
2022/01/14 10:05:09;;;;;;;24.75;13.57;;;;;;;5.79;62.23;102323.81;5111751;28;20048;-75
2022/01/14 10:07:37;;;;;;;21.02;12.43;;;;;;;6.21;61.51;102325.63;5111704;28;20398;-75
2022/01/14 10:10:22;;;;;;;20.80;12.75;;;;;;;6.21;62.16;102322.91;5112440;28;20048;-75
2022/01/14 10:12:51;;;;;;;22.17;13.43;;;;;;;6.24;62.03;102317.88;5114910;28;20052;-75
2022/01/14 10:15:18;;;;;;;21.95;13.63;;;;;;;6.66;59.50;102314.13;5096394;28;20051;-75
2022/01/14 10:17:47;;;;;;;22.90;13.35;;;;;;;6.93;58.38;102314.91;5115640;28;20042;-75
2022/01/14 10:20:18;;;;;;;27.95;14.05;;;;;;;7.17;58.24;102307.09;5114402;28;20051;-74
2022/01/14 10:22:48;;;;;;;25.25;14.13;;;;;;;6.75;60.14;102287.53;5096975;28;20043;-75
2022/01/14 10:25:19;;;;;;;23.00;13.55;;;;;;;6.94;59.00;102286.66;5114789;28;20047;-75
2022/01/14 10:27:52;;;;;;;21.85;13.65;;;;;;;6.97;58.83;102286.22;5114073;28;20502;-74
2022/01/14 10:30:29;;;;;;;22.60;13.75;;;;;;;7.12;59.48;102285.97;5115189;28;20050;-74
2022/01/14 10:32:58;;;;;;;22.98;14.27;;;;;;;6.94;60.20;102285.81;5100919;28;20054;-75
2022/01/14 10:35:30;;;;;;;25.35;14.73;;;;;;;6.93;60.66;102276.81;5114465;28;20513;-75
2022/01/14 10:38:04;;;;;;;24.25;14.82;;;;;;;7.22;59.33;102271.91;5114460;28;20039;-75
2022/01/14 10:40:43;;;;;;;33.03;14.15;;;;;;;6.83;60.53;102268.25;5115141;28;20043;-74
2022/01/14 10:43:17;;;;;;;27.20;14.18;;;;;;;7.68;58.01;102269.19;5113867;28;20494;-75
2022/01/14 10:45:56;;;;;;;23.15;14.13;;;;;;;7.80;58.02;102261.97;5114191;28;20054;-74
2022/01/14 10:48:32;;;;;;;25.50;13.38;;;;;;;7.45;59.32;102265.09;5114135;28;20059;-74
2022/01/14 10:51:11;;;;;;;27.95;14.93;;;;;;;7.40;60.03;102260.28;5114647;28;20035;-74
2022/01/14 10:53:48;;;;;;;19.50;12.90;;;;;;;7.79;58.72;102262.19;5114759;28;20043;-75
2022/01/14 10:56:22;;;;;;;22.05;14.20;;;;;;;8.03;58.61;102267.91;5114147;28;20063;-75
2022/01/14 10:58:56;;;;;;;23.77;14.73;;;;;;;7.75;59.32;102255.50;5096749;28;20039;-74
2022/01/14 11:01:25;;;;;;;26.92;13.77;;;;;;;8.06;58.29;102246.47;5114710;28;20048;-74
2022/01/14 11:03:56;;;;;;;24.55;15.38;;;;;;;8.24;56.96;102246.75;5113614;28;20051;-74
2022/01/14 11:06:35;;;;;;;24.40;13.80;;;;;;;8.79;56.23;102243.31;5113954;28;20055;-74
2022/01/14 11:09:17;;;;;;;27.73;15.45;;;;;;;8.38;57.41;102229.22;5113796;28;20058;-75
2022/01/14 11:11:47;;;;;;;23.90;15.05;;;;;;;8.13;57.51;102234.69;5113287;28;20047;-74
2022/01/14 11:14:16;;;;;;;20.65;14.25;;;;;;;8.86;56.56;102226.88;5096112;28;20044;-75
2022/01/14 11:16:45;;;;;;;28.75;15.98;;;;;;;8.62;57.10;102220.41;5114046;28;20482;-75
2022/01/14 11:19:14;;;;;;;25.80;14.73;;;;;;;8.63;56.56;102211.16;5112977;28;20048;-75
2022/01/14 11:24:33;;;;;;;26.85;15.88;;;;;;;8.48;57.36;102204.16;5098385;28;20044;-74
2022/01/14 11:27:09;;;;;;;31.98;17.35;;;;;;;8.74;57.76;102196.75;5112929;28;20047;-75
2022/01/14 11:29:41;;;;;;;26.15;16.52;;;;;;;8.95;57.52;102198.19;5094035;28;20513;-75
2022/01/14 11:32:10;;;;;;;28.48;16.25;;;;;;;8.88;56.36;102191.97;5113174;28;20044;-75
2022/01/14 11:34:45;;;;;;;32.00;16.40;;;;;;;9.17;55.50;102189.50;5110385;28;20071;-75
2022/01/14 11:37:17;;;;;;;20.98;15.43;;;;;;;8.80;55.18;102181.38;5112817;28;20055;-75
2022/01/14 11:39:59;;;;;;;27.50;14.55;;;;;;;9.06;55.40;102174.75;5112044;28;20070;-75
2022/01/14 11:42:44;;;;;;;15.18;8.07;;;;;;;9.19;50.62;102175.63;5113647;28;20048;-75
2022/01/14 11:45:15;;;;;;;9.20;5.53;;;;;;;9.68;49.76;102172.81;5113116;28;20490;-75
2022/01/14 11:47:45;;;;;;;9.50;4.53;;;;;;;9.80;47.55;102170.09;5112778;28;20055;-75
2022/01/14 11:50:18;;;;;;;5.97;3.05;;;;;;;10.20;46.40;102161.19;5112100;28;20052;-75
2022/01/14 11:52:48;;;;;;;9.00;4.70;;;;;;;10.42;46.00;102162.50;5110829;28;20052;-74